Latest Weather Observations for Noarlunga

IDS60901

Issued at 6:21 pm CST Friday 18 September 2020 (issued every 10 minutes, with the page automatically refreshed every 10 minutes)

About weather observations | Map of Adelaide area stations | Latest observations for Adelaide area | Other Formats
Station Details ID: 023885 Name: NOARLUNGA Lat: -35.16 Lon: 138.51 Height: 55.0 m
Data from the previous 72 hours. | See also: Recent months at Noarlunga
Date/Time
CST
Temp
°C
App
Temp
°C
Dew
Point
°C
Rel
Hum
%
Delta-T
°C
Wind Press
QNH
hPa
Press
MSL
hPa
Rain since
9am
mm
Dir  Spd
km/h
Gust
km/h
Spd
kts
Gust
kts
18/06:00pm 24.1 20.9 11.8 46 7.0 E 20 39 11 21 - - 0.0
18/05:30pm 23.9 20.8 12.2 48 6.7 E 20 37 11 20 - - 0.0
18/05:00pm 23.5 20.2 12.8 51 6.2 E 22 37 12 20 - - 0.0
18/04:30pm 24.3 21.4 12.9 49 6.6 E 20 35 11 19 - - 0.0
18/04:00pm 23.1 20.8 13.0 53 5.8 E 17 35 9 19 - - 0.0
18/03:30pm 23.6 20.9 12.9 51 6.2 E 19 30 10 16 - - 0.0
18/03:00pm 24.1 21.5 13.3 51 6.3 E 19 30 10 16 - - 0.0
18/02:30pm 24.1 21.5 13.3 51 6.3 E 19 30 10 16 - - 0.0
18/02:00pm 24.8 22.0 12.7 47 7.0 E 19 33 10 18 - - 0.0
18/01:30pm 27.6 27.4 13.5 41 8.4 NNW 7 22 4 12 - - 0.0
18/01:00pm 27.1 25.8 14.8 47 7.4 E 15 24 8 13 - - 0.0
18/12:30pm 25.6 24.2 13.5 47 7.1 E 13 26 7 14 - - 0.0
18/12:00pm 25.0 23.8 13.9 50 6.6 E 13 28 7 15 - - 0.0
18/11:30am 24.9 22.3 13.1 48 6.9 E 19 28 10 15 - - 0.0
18/11:00am 24.7 21.7 12.6 47 7.0 E 20 30 11 16 - - 0.0
18/10:30am 23.5 20.7 12.5 50 6.3 E 19 28 10 15 - - 0.0
18/10:00am 21.4 17.6 11.1 52 5.7 ENE 22 35 12 19 - - 0.0
18/09:30am 21.2 17.9 11.0 52 5.6 NE 19 35 10 19 - - 0.0
18/09:00am 20.2 14.9 11.1 56 5.0 E 30 54 16 29 - - 0.0
18/08:31am 19.0 13.1 11.1 60 4.3 E 33 52 18 28 - - 0.0
18/08:30am 18.9 12.6 11.0 60 4.3 E 35 52 19 28 - - 0.0
18/08:00am 17.9 12.0 10.5 62 4.0 E 32 54 17 29 - - 0.0
18/07:31am 16.9 11.3 10.3 65 3.5 E 30 48 16 26 - - 0.0
18/07:30am 16.9 11.3 10.3 65 3.5 E 30 46 16 25 - - 0.0
18/07:00am 16.6 11.4 10.2 66 3.4 ENE 28 61 15 33 - - 0.0
18/06:31am 16.0 9.9 9.9 67 3.2 E 32 54 17 29 - - 0.0
18/06:30am 16.0 9.9 9.9 67 3.2 E 32 48 17 26 - - 0.0
18/06:18am 15.8 10.5 9.9 68 3.1 ENE 28 50 15 27 - - 0.0
18/06:00am 15.6 11.1 9.9 69 3.0 ENE 24 43 13 23 - - 0.0
18/05:30am 16.1 9.5 10.0 67 3.2 E 35 61 19 33 - - 0.0
18/05:00am 16.3 10.2 9.9 66 3.4 E 32 52 17 28 - - 0.0
18/04:45am 16.3 10.7 10.2 67 3.2 E 30 56 16 30 - - 0.0
18/04:30am 16.1 12.5 10.4 69 3.0 NE 20 46 11 25 - - 0.0
18/04:02am 16.4 10.9 10.5 68 3.1 E 30 48 16 26 - - 0.0
18/04:00am 16.4 10.5 10.5 68 3.1 E 32 48 17 26 - - 0.0
18/03:30am 16.2 9.8 10.7 70 2.9 E 35 54 19 29 - - 0.0
18/03:00am 16.1 9.7 10.8 71 2.8 E 35 56 19 30 - - 0.0
18/02:30am 16.0 10.0 10.7 71 2.8 E 33 52 18 28 - - 0.0
18/02:03am 15.9 9.9 10.9 72 2.7 E 33 52 18 28 - - 0.0
18/02:00am 15.9 9.9 10.9 72 2.7 E 33 52 18 28 - - 0.0
18/01:30am 16.1 9.7 10.8 71 2.8 E 35 56 19 30 - - 0.0
18/01:00am 16.2 9.8 10.7 70 2.9 E 35 57 19 31 - - 0.0
18/12:30am 16.5 9.7 10.8 69 3.1 E 37 65 20 35 - - 0.0
18/12:00am 16.5 10.5 10.8 69 3.1 E 33 54 18 29 - - 0.0
 
Date/Time
CST
Temp
°C
App
Temp
°C
Dew
Point
°C
Rel
Hum
%
Delta-T
°C
Wind Press
QNH
hPa
Press
MSL
hPa
Rain since
9am
mm
Dir  Spd
km/h
Gust
km/h
Spd
kts
Gust
kts
17/11:30pm 16.5 9.7 10.8 69 3.1 E 37 61 20 33 - - 0.0
17/11:00pm 16.4 8.9 10.9 70 2.9 E 41 69 22 37 - - 0.0
17/10:30pm 16.3 9.6 11.0 71 2.8 E 37 57 20 31 - - 0.0
17/10:00pm 16.2 8.8 11.2 72 2.7 E 41 63 22 34 - - 0.0
17/09:30pm 16.1 8.8 11.5 74 2.5 E 41 70 22 38 - - 0.0
17/09:00pm 15.6 8.1 12.2 80 1.9 E 43 65 23 35 - - 0.0
17/08:30pm 15.7 8.7 12.5 81 1.8 ESE 41 63 22 34 - - 0.0
17/08:02pm 15.7 9.1 12.5 81 1.8 ESE 39 57 21 31 - - 0.0
17/08:00pm 15.6 9.0 12.5 82 1.7 ESE 39 56 21 30 - - 0.0
17/07:30pm 15.5 8.0 12.6 83 1.6 ESE 44 67 24 36 - - 0.0
17/07:14pm 15.5 8.9 12.6 83 1.6 ESE 39 57 21 31 - - 0.0
17/07:00pm 15.5 8.5 12.4 82 1.7 ESE 41 54 22 29 - - 0.0
17/06:36pm 15.4 9.5 12.5 83 1.6 ESE 35 57 19 31 - - 0.0
17/06:30pm 15.4 9.9 12.3 82 1.7 ESE 33 52 18 28 - - 0.0
17/06:00pm 15.4 7.9 12.2 81 1.7 ESE 43 65 23 35 - - 0.0
17/05:30pm 15.4 9.1 12.3 82 1.7 ESE 37 57 20 31 - - 0.0
17/05:00pm 15.4 8.7 12.2 81 1.7 ESE 39 59 21 32 - - 0.0
17/04:30pm 15.6 9.5 11.8 78 2.1 ESE 35 63 19 34 - - 0.0
17/04:02pm 15.8 10.3 12.0 78 2.1 ESE 32 54 17 29 - - 0.0
17/04:00pm 15.8 10.7 12.0 78 2.1 ESE 30 44 16 24 - - 0.0
17/03:30pm 15.8 10.2 12.0 78 2.1 ESE 33 56 18 30 - - 0.0
17/03:02pm 15.8 9.0 11.8 77 2.2 SE 39 57 21 31 - - 0.0
17/03:00pm 15.9 9.5 11.9 77 2.2 SE 37 54 20 29 - - 0.0
17/02:30pm 16.4 10.0 12.0 75 2.4 ESE 37 59 20 32 - - 0.0
17/02:01pm 16.2 10.1 11.8 75 2.4 ESE 35 54 19 29 - - 0.0
17/02:00pm 16.0 9.5 11.6 75 2.4 ESE 37 54 20 29 - - 0.0
17/01:30pm 15.9 9.0 11.5 75 2.4 ESE 39 59 21 32 - - 0.0
17/01:01pm 15.6 9.1 11.6 77 2.2 ESE 37 56 20 30 - - 0.0
17/01:00pm 15.6 9.5 11.8 78 2.1 ESE 35 50 19 27 - - 0.0
17/12:31pm 15.2 8.6 11.4 78 2.0 ESE 37 57 20 31 - - 0.0
17/12:30pm 15.3 8.7 11.5 78 2.0 ESE 37 54 20 29 - - 0.0
17/12:00pm 14.9 7.2 11.5 80 1.8 ESE 43 63 23 34 - - 0.0
17/11:30am 14.3 7.8 11.8 85 1.3 ESE 37 57 20 31 - - 0.0
17/11:07am 13.8 7.6 11.5 86 1.2 ESE 35 56 19 30 - - 0.0
17/11:00am 13.7 7.1 11.4 86 1.2 ESE 37 54 20 29 - - 0.0
17/10:30am 13.7 6.7 11.2 85 1.3 ESE 39 59 21 32 - - 0.0
17/10:00am 13.7 6.2 10.9 83 1.5 ESE 41 61 22 33 - - 0.0
17/09:30am 13.9 7.1 10.5 80 1.8 SE 37 57 20 31 - - 0.0
17/09:00am 14.0 7.8 10.2 78 2.0 SE 33 61 18 33 - - 0.0
17/08:35am 14.1 7.5 9.9 76 2.2 SE 35 56 19 30 - - 0.0
17/08:30am 14.1 7.5 9.9 76 2.2 ESE 35 48 19 26 - - 0.0
17/08:00am 14.3 8.6 9.9 75 2.3 ESE 30 43 16 23 - - 0.0
17/07:30am 14.1 8.0 9.7 75 2.3 ESE 32 48 17 26 - - 0.0
17/07:00am 14.3 8.8 9.3 72 2.6 ESE 28 43 15 23 - - 0.0
17/06:30am 14.2 9.4 9.0 71 2.6 ESE 24 35 13 19 - - 0.0
17/06:00am 14.4 8.7 8.4 67 3.0 ESE 28 41 15 22 - - 0.0
17/05:30am 14.6 9.3 8.3 66 3.2 ESE 26 41 14 22 - - 0.0
17/05:00am 14.6 8.9 8.5 67 3.1 ESE 28 44 15 24 - - 0.0
17/04:30am 14.5 8.9 8.7 68 2.9 ESE 28 39 15 21 - - 0.0
17/04:00am 14.6 9.8 9.0 69 2.9 ESE 24 35 13 19 - - 0.0
17/03:30am 14.8 10.0 8.7 67 3.1 ESE 24 35 13 19 - - 0.0
17/03:00am 14.5 9.9 9.5 72 2.6 ESE 24 37 13 20 - - 0.0
17/02:30am 14.6 9.6 9.4 71 2.7 SE 26 35 14 19 - - 0.0
17/02:00am 14.7 9.3 9.5 71 2.7 ESE 28 39 15 21 - - 0.0
17/01:30am 14.9 10.2 9.3 69 2.9 ESE 24 33 13 18 - - 0.0
17/01:00am 15.0 9.9 9.1 68 3.0 ESE 26 37 14 20 - - 0.0
17/12:30am 15.1 10.1 9.7 70 2.8 ESE 26 39 14 21 - - 0.0
17/12:00am 15.1 11.2 10.7 75 2.3 SE 22 30 12 16 - - 0.0
 
Date/Time
CST
Temp
°C
App
Temp
°C
Dew
Point
°C
Rel
Hum
%
Delta-T
°C
Wind Press
QNH
hPa
Press
MSL
hPa
Rain since
9am
mm
Dir  Spd
km/h
Gust
km/h
Spd
kts
Gust
kts
16/11:30pm 15.3 11.4 10.7 74 2.4 ESE 22 33 12 18 - - 0.0
16/11:00pm 15.6 12.0 10.4 71 2.7 ESE 20 32 11 17 - - 0.0
16/10:30pm 16.1 12.5 10.6 70 2.9 ESE 20 28 11 15 - - 0.0
16/10:00pm 16.1 12.5 10.6 70 2.9 ESE 20 28 11 15 - - 0.0
16/09:30pm 16.7 12.7 10.5 67 3.3 SE 22 30 12 16 - - 0.0
16/09:00pm 17.9 14.7 9.8 59 4.3 ESE 17 24 9 13 - - 0.0
16/08:30pm 18.8 15.7 8.7 52 5.3 SE 15 22 8 12 - - 0.0
16/08:00pm 18.8 16.8 8.7 52 5.3 ESE 9 15 5 8 - - 0.0
16/07:30pm 19.2 18.5 8.5 50 5.6 SE 2 4 1 2 - - 0.0
16/07:00pm 19.4 17.3 8.4 49 5.7 ESE 9 13 5 7 - - 0.0
16/06:30pm 19.7 18.2 8.4 48 5.9 ENE 6 9 3 5 - - 0.0
16/06:00pm 20.1 18.3 7.8 45 6.4 ESE 7 9 4 5 - - 0.0
16/05:30pm 20.3 19.2 8.3 46 6.3 E 4 7 2 4 - - 0.0
16/05:00pm 20.3 18.8 8.6 47 6.1 S 6 11 3 6 - - 0.0
16/04:30pm 20.3 19.8 9.5 50 5.8 S 2 6 1 3 - - 0.0
16/04:00pm 20.0 19.6 9.9 52 5.4 W 2 6 1 3 - - 0.0
16/03:30pm 24.1 20.1 5.0 29 9.6 NNW 15 22 8 12 - - 0.0
16/03:00pm 25.0 21.1 5.2 28 10.0 N 15 24 8 13 - - 0.0
16/02:30pm 24.7 20.5 5.5 29 9.8 N 17 26 9 14 - - 0.0
16/02:00pm 24.3 20.2 6.1 31 9.3 N 17 28 9 15 - - 0.0
16/01:30pm 23.8 19.8 6.6 33 8.9 N 17 28 9 15 - - 0.0
16/01:00pm 23.9 19.2 6.2 32 9.1 N 20 32 11 17 - - 0.0
16/12:30pm 23.5 17.7 4.5 29 9.4 N 24 37 13 20 - - 0.0
16/12:00pm 23.2 16.4 5.2 31 9.0 N 30 43 16 23 - - 0.0
16/11:30am 23.4 17.0 5.3 31 9.1 N 28 43 15 23 - - 0.0
16/11:00am 22.8 16.6 4.3 30 9.1 N 26 39 14 21 - - 0.0
16/10:30am 22.6 16.9 5.1 32 8.7 N 24 41 13 22 - - 0.0
16/10:00am 21.2 16.7 5.9 37 7.7 NNE 19 28 10 15 - - 0.0
16/09:30am 19.7 15.1 5.4 39 7.0 N 19 28 10 15 - - 0.0
16/09:00am 18.9 13.7 5.7 42 6.5 N 22 33 12 18 - - 0.0
16/08:30am 17.6 12.3 5.2 44 6.0 N 22 33 12 18 - - 0.0
16/08:00am 17.4 12.5 5.0 44 5.9 NNE 20 32 11 17 - - 0.0
16/07:30am 16.9 12.2 5.2 46 5.6 NNE 19 28 10 15 - - 0.0
16/07:00am 15.6 11.3 5.2 50 4.9 NNE 17 28 9 15 - - 0.0
16/06:30am 15.3 11.0 5.2 51 4.8 NNE 17 24 9 13 - - 0.0
16/06:00am 15.4 11.0 5.0 50 4.9 NNE 17 28 9 15 - - 0.0
16/05:30am 14.8 10.2 5.6 54 4.4 NNE 19 26 10 14 - - 0.0
16/05:00am 13.9 9.8 6.0 59 3.8 NNE 17 22 9 12 - - 0.0
16/04:30am 12.9 9.6 6.5 65 3.1 NNE 13 17 7 9 - - 0.0
16/04:00am 13.0 11.0 6.1 63 3.3 NNE 6 9 3 5 - - 0.0
16/03:30am 13.2 10.7 6.5 64 3.2 NNE 9 15 5 8 - - 0.0
16/03:00am 13.3 10.5 6.9 65 3.1 NNE 11 17 6 9 - - 0.0
16/02:30am 13.2 10.4 7.0 66 3.0 NNE 11 15 6 8 - - 0.0
16/02:00am 12.5 9.9 7.6 72 2.4 NE 11 15 6 8 - - 0.0
16/01:30am 11.3 9.7 7.8 79 1.7 NE 6 9 3 5 - - 0.0
16/01:00am 11.6 10.8 8.1 79 1.7 NE 2 4 1 2 - - 0.0
16/12:30am 12.2 11.5 8.5 78 1.8 NE 2 4 1 2 - - 0.0
16/12:00am 11.7 11.4 8.7 82 1.5 CALM 0 0 0 0 - - 0.0
 
Date/Time
CST
Temp
°C
App
Temp
°C
Dew
Point
°C
Rel
Hum
%
Delta-T
°C
Wind Press
QNH
hPa
Press
MSL
hPa
Rain since
9am
mm
Dir  Spd
km/h
Gust
km/h
Spd
kts
Gust
kts
15/11:30pm 12.8 11.8 8.7 76 2.1 ENE 4 6 2 3 - - 0.0
15/11:00pm 13.6 12.1 9.3 75 2.2 ENE 7 11 4 6 - - 0.0
15/10:30pm 13.5 12.4 10.1 80 1.8 ENE 6 7 3 4 - - 0.0
15/10:00pm 12.9 12.1 11.1 89 0.9 ENE 6 7 3 4 - - 0.0
15/09:30pm 13.1 12.8 11.3 89 1.0 E 4 6 2 3 - - 0.0
15/09:00pm 12.8 13.2 11.2 90 0.8 CALM 0 0 0 0 - - 0.0
15/08:30pm 12.9 13.3 11.1 89 0.9 CALM 0 0 0 0 - - 0.0
15/08:00pm 13.4 13.4 11.1 86 1.2 SE 2 4 1 2 - - 0.0
15/07:30pm 14.3 13.6 11.3 82 1.6 ESE 6 11 3 6 - - 0.0
15/07:00pm 14.2 13.3 11.5 84 1.4 SE 7 11 4 6 - - 0.0
15/06:30pm 14.3 14.8 11.6 84 1.4 CALM 0 0 0 0 - - 0.0

Latest Capital City Observations: Canberra | Sydney | Melbourne | Brisbane | Adelaide | Perth | Hobart | Darwin

Other formats

Comma delimited format used in spreadsheet applications
http://www.bom.gov.au/fwo/IDS60901/IDS60901.94808.axf

JavaScript Object Notation format (JSON) in row-major order
http://www.bom.gov.au/fwo/IDS60901/IDS60901.94808.json

Data quality

Most of these data are generated automatically and are frequently updated. Quality checks on data are not normally performed. It is possible for incorrect values to appear. Refer to information at About Latest Weather Observations and please check the disclaimer before using these data.